sensor_id;sensor_type;location;lat;lon;timestamp;temperature;humidity
68385;DHT22;55336;43.062;25.626;2023-04-06T00:02:09;3.60;99.90
68385;DHT22;55336;43.062;25.626;2023-04-06T00:04:35;3.50;99.90
68385;DHT22;55336;43.062;25.626;2023-04-06T00:07:01;3.40;99.90
68385;DHT22;55336;43.062;25.626;2023-04-06T00:09:27;3.30;99.90
68385;DHT22;55336;43.062;25.626;2023-04-06T00:11:53;3.30;99.90
68385;DHT22;55336;43.062;25.626;2023-04-06T00:14:19;3.20;99.90
68385;DHT22;55336;43.062;25.626;2023-04-06T00:16:45;3.20;99.90
68385;DHT22;55336;43.062;25.626;2023-04-06T00:19:11;3.10;99.90
68385;DHT22;55336;43.062;25.626;2023-04-06T00:21:37;3.10;99.90
68385;DHT22;55336;43.062;25.626;2023-04-06T00:24:03;3.00;99.90
68385;DHT22;55336;43.062;25.626;2023-04-06T00:26:29;3.00;99.90
68385;DHT22;55336;43.062;25.626;2023-04-06T00:28:55;3.00;99.90
68385;DHT22;55336;43.062;25.626;2023-04-06T00:31:21;3.00;99.90
68385;DHT22;55336;43.062;25.626;2023-04-06T00:33:48;2.90;99.90
68385;DHT22;55336;43.062;25.626;2023-04-06T00:36:14;3.00;99.90
68385;DHT22;55336;43.062;25.626;2023-04-06T00:38:39;2.90;99.90
68385;DHT22;55336;43.062;25.626;2023-04-06T00:41:05;2.80;99.90
68385;DHT22;55336;43.062;25.626;2023-04-06T00:43:32;2.80;99.90
68385;DHT22;55336;43.062;25.626;2023-04-06T00:45:57;2.70;99.90
68385;DHT22;55336;43.062;25.626;2023-04-06T00:48:23;2.60;99.90
68385;DHT22;55336;43.062;25.626;2023-04-06T00:50:49;2.50;99.90
68385;DHT22;55336;43.062;25.626;2023-04-06T00:53:16;2.40;99.90
68385;DHT22;55336;43.062;25.626;2023-04-06T00:55:43;2.30;99.90
68385;DHT22;55336;43.062;25.626;2023-04-06T00:58:09;2.10;99.90
68385;DHT22;55336;43.062;25.626;2023-04-06T01:00:35;2.00;99.90
68385;DHT22;55336;43.062;25.626;2023-04-06T01:03:01;1.90;99.90
68385;DHT22;55336;43.062;25.626;2023-04-06T01:05:27;1.80;99.90
68385;DHT22;55336;43.062;25.626;2023-04-06T01:07:53;1.60;99.90
68385;DHT22;55336;43.062;25.626;2023-04-06T01:10:26;1.50;99.90
68385;DHT22;55336;43.062;25.626;2023-04-06T01:12:52;1.40;99.90
68385;DHT22;55336;43.062;25.626;2023-04-06T01:15:19;1.30;99.90
68385;DHT22;55336;43.062;25.626;2023-04-06T01:17:45;1.10;99.90
68385;DHT22;55336;43.062;25.626;2023-04-06T01:20:11;1.10;99.90
68385;DHT22;55336;43.062;25.626;2023-04-06T01:22:38;1.00;99.90
68385;DHT22;55336;43.062;25.626;2023-04-06T01:25:05;0.80;99.90
68385;DHT22;55336;43.062;25.626;2023-04-06T01:27:31;0.80;99.90
68385;DHT22;55336;43.062;25.626;2023-04-06T01:29:57;0.70;99.90
68385;DHT22;55336;43.062;25.626;2023-04-06T01:32:23;0.70;99.90
68385;DHT22;55336;43.062;25.626;2023-04-06T01:34:49;0.60;99.90
68385;DHT22;55336;43.062;25.626;2023-04-06T01:37:15;0.60;99.90
68385;DHT22;55336;43.062;25.626;2023-04-06T01:39:42;0.60;99.90
68385;DHT22;55336;43.062;25.626;2023-04-06T01:42:08;0.70;99.90
68385;DHT22;55336;43.062;25.626;2023-04-06T01:44:34;0.70;99.90
68385;DHT22;55336;43.062;25.626;2023-04-06T01:47:00;0.70;99.90
68385;DHT22;55336;43.062;25.626;2023-04-06T01:49:26;0.80;99.90
68385;DHT22;55336;43.062;25.626;2023-04-06T01:51:52;0.80;99.90
68385;DHT22;55336;43.062;25.626;2023-04-06T01:54:19;0.90;99.90
68385;DHT22;55336;43.062;25.626;2023-04-06T01:56:45;1.00;99.90
68385;DHT22;55336;43.062;25.626;2023-04-06T01:59:11;1.10;99.90
68385;DHT22;55336;43.062;25.626;2023-04-06T02:01:37;1.10;99.90
68385;DHT22;55336;43.062;25.626;2023-04-06T02:04:03;1.20;99.90
68385;DHT22;55336;43.062;25.626;2023-04-06T02:06:30;1.20;99.90
68385;DHT22;55336;43.062;25.626;2023-04-06T02:08:56;1.30;99.90
68385;DHT22;55336;43.062;25.626;2023-04-06T02:11:22;1.40;99.90
68385;DHT22;55336;43.062;25.626;2023-04-06T02:13:48;1.40;99.90
68385;DHT22;55336;43.062;25.626;2023-04-06T02:16:14;1.50;99.90
68385;DHT22;55336;43.062;25.626;2023-04-06T02:18:41;1.60;99.90
68385;DHT22;55336;43.062;25.626;2023-04-06T02:21:07;1.60;99.90
68385;DHT22;55336;43.062;25.626;2023-04-06T02:23:33;1.70;99.90
68385;DHT22;55336;43.062;25.626;2023-04-06T02:25:59;1.70;99.90
68385;DHT22;55336;43.062;25.626;2023-04-06T02:28:25;1.70;99.90
68385;DHT22;55336;43.062;25.626;2023-04-06T02:30:51;1.80;99.90
68385;DHT22;55336;43.062;25.626;2023-04-06T02:33:16;1.80;99.90
68385;DHT22;55336;43.062;25.626;2023-04-06T02:35:44;1.90;99.90
68385;DHT22;55336;43.062;25.626;2023-04-06T02:38:11;1.90;99.90
68385;DHT22;55336;43.062;25.626;2023-04-06T02:40:37;1.90;99.90
68385;DHT22;55336;43.062;25.626;2023-04-06T02:43:03;2.00;99.90
68385;DHT22;55336;43.062;25.626;2023-04-06T02:45:29;2.00;99.90
68385;DHT22;55336;43.062;25.626;2023-04-06T02:47:56;1.90;99.90
68385;DHT22;55336;43.062;25.626;2023-04-06T02:50:22;2.00;99.90
68385;DHT22;55336;43.062;25.626;2023-04-06T02:52:48;2.00;99.90
68385;DHT22;55336;43.062;25.626;2023-04-06T02:55:14;2.00;99.90
68385;DHT22;55336;43.062;25.626;2023-04-06T02:57:40;2.00;99.90
68385;DHT22;55336;43.062;25.626;2023-04-06T03:00:06;2.10;99.90
68385;DHT22;55336;43.062;25.626;2023-04-06T03:02:32;2.10;99.90
68385;DHT22;55336;43.062;25.626;2023-04-06T03:04:58;2.10;99.90
68385;DHT22;55336;43.062;25.626;2023-04-06T03:07:24;2.20;99.90
68385;DHT22;55336;43.062;25.626;2023-04-06T03:09:50;2.20;99.90
68385;DHT22;55336;43.062;25.626;2023-04-06T03:12:16;2.20;99.90
68385;DHT22;55336;43.062;25.626;2023-04-06T03:14:43;2.10;99.90
68385;DHT22;55336;43.062;25.626;2023-04-06T03:17:08;2.10;99.90
68385;DHT22;55336;43.062;25.626;2023-04-06T03:19:34;2.10;99.90
68385;DHT22;55336;43.062;25.626;2023-04-06T03:22:00;2.20;99.90
68385;DHT22;55336;43.062;25.626;2023-04-06T03:24:26;2.20;99.90
68385;DHT22;55336;43.062;25.626;2023-04-06T03:26:53;2.20;99.90
68385;DHT22;55336;43.062;25.626;2023-04-06T03:29:19;2.20;99.90
68385;DHT22;55336;43.062;25.626;2023-04-06T03:31:45;2.20;99.90
68385;DHT22;55336;43.062;25.626;2023-04-06T03:34:11;2.20;99.90
68385;DHT22;55336;43.062;25.626;2023-04-06T03:36:37;2.30;99.90
68385;DHT22;55336;43.062;25.626;2023-04-06T03:39:03;2.30;99.90
68385;DHT22;55336;43.062;25.626;2023-04-06T03:41:29;2.30;99.90
68385;DHT22;55336;43.062;25.626;2023-04-06T03:43:56;2.40;99.90
68385;DHT22;55336;43.062;25.626;2023-04-06T03:46:22;2.40;99.90
68385;DHT22;55336;43.062;25.626;2023-04-06T03:48:48;2.50;99.90
68385;DHT22;55336;43.062;25.626;2023-04-06T03:51:14;2.40;99.90
68385;DHT22;55336;43.062;25.626;2023-04-06T03:53:40;2.40;99.90
68385;DHT22;55336;43.062;25.626;2023-04-06T03:56:06;2.50;99.90
68385;DHT22;55336;43.062;25.626;2023-04-06T03:58:32;2.50;99.90
68385;DHT22;55336;43.062;25.626;2023-04-06T04:00:58;2.50;99.90
68385;DHT22;55336;43.062;25.626;2023-04-06T04:03:24;2.50;99.90
68385;DHT22;55336;43.062;25.626;2023-04-06T04:05:53;2.60;99.90
68385;DHT22;55336;43.062;25.626;2023-04-06T04:08:20;2.60;99.90
68385;DHT22;55336;43.062;25.626;2023-04-06T04:10:46;2.60;99.90
68385;DHT22;55336;43.062;25.626;2023-04-06T04:13:12;2.70;99.90
68385;DHT22;55336;43.062;25.626;2023-04-06T04:15:38;2.70;99.90
68385;DHT22;55336;43.062;25.626;2023-04-06T04:18:04;2.80;99.90
68385;DHT22;55336;43.062;25.626;2023-04-06T04:20:30;2.80;99.90
68385;DHT22;55336;43.062;25.626;2023-04-06T04:22:56;2.80;99.90
68385;DHT22;55336;43.062;25.626;2023-04-06T04:25:23;2.90;99.90
68385;DHT22;55336;43.062;25.626;2023-04-06T04:27:49;2.90;99.90
68385;DHT22;55336;43.062;25.626;2023-04-06T04:30:15;3.00;99.90
68385;DHT22;55336;43.062;25.626;2023-04-06T04:32:41;3.00;99.90
68385;DHT22;55336;43.062;25.626;2023-04-06T04:35:08;3.10;99.90
68385;DHT22;55336;43.062;25.626;2023-04-06T04:37:34;3.10;99.90
68385;DHT22;55336;43.062;25.626;2023-04-06T04:40:00;3.20;99.90
68385;DHT22;55336;43.062;25.626;2023-04-06T04:42:27;3.20;99.90
68385;DHT22;55336;43.062;25.626;2023-04-06T04:44:52;3.30;99.90
68385;DHT22;55336;43.062;25.626;2023-04-06T04:47:19;3.40;99.90
68385;DHT22;55336;43.062;25.626;2023-04-06T04:49:45;3.50;99.90
68385;DHT22;55336;43.062;25.626;2023-04-06T04:52:11;3.60;99.90
68385;DHT22;55336;43.062;25.626;2023-04-06T04:54:37;3.70;99.90
68385;DHT22;55336;43.062;25.626;2023-04-06T04:57:03;3.80;99.90
68385;DHT22;55336;43.062;25.626;2023-04-06T04:59:29;3.90;99.90
68385;DHT22;55336;43.062;25.626;2023-04-06T05:01:55;3.90;99.90
68385;DHT22;55336;43.062;25.626;2023-04-06T05:04:22;4.10;99.90
68385;DHT22;55336;43.062;25.626;2023-04-06T05:06:48;4.20;99.90
68385;DHT22;55336;43.062;25.626;2023-04-06T05:09:15;4.30;99.90
68385;DHT22;55336;43.062;25.626;2023-04-06T05:11:40;4.50;99.90
68385;DHT22;55336;43.062;25.626;2023-04-06T05:14:06;4.60;99.90
68385;DHT22;55336;43.062;25.626;2023-04-06T05:16:34;4.70;99.90
68385;DHT22;55336;43.062;25.626;2023-04-06T05:18:59;4.70;99.90
68385;DHT22;55336;43.062;25.626;2023-04-06T05:21:27;4.80;99.90
68385;DHT22;55336;43.062;25.626;2023-04-06T05:23:53;5.00;99.90
68385;DHT22;55336;43.062;25.626;2023-04-06T05:26:19;4.90;99.90
68385;DHT22;55336;43.062;25.626;2023-04-06T05:28:45;5.00;99.90
68385;DHT22;55336;43.062;25.626;2023-04-06T05:31:11;5.00;99.90
68385;DHT22;55336;43.062;25.626;2023-04-06T05:33:37;4.90;99.90
68385;DHT22;55336;43.062;25.626;2023-04-06T05:36:03;5.00;99.90
68385;DHT22;55336;43.062;25.626;2023-04-06T05:38:30;5.10;99.90
68385;DHT22;55336;43.062;25.626;2023-04-06T05:40:56;5.30;99.90
68385;DHT22;55336;43.062;25.626;2023-04-06T05:43:22;5.40;99.90
68385;DHT22;55336;43.062;25.626;2023-04-06T05:45:48;5.40;99.90
68385;DHT22;55336;43.062;25.626;2023-04-06T05:48:13;5.40;99.90
68385;DHT22;55336;43.062;25.626;2023-04-06T05:50:39;5.60;99.90
68385;DHT22;55336;43.062;25.626;2023-04-06T05:53:05;5.70;99.90
68385;DHT22;55336;43.062;25.626;2023-04-06T05:55:31;5.60;99.90
68385;DHT22;55336;43.062;25.626;2023-04-06T05:57:57;5.60;99.90
68385;DHT22;55336;43.062;25.626;2023-04-06T06:00:23;5.60;99.90
68385;DHT22;55336;43.062;25.626;2023-04-06T06:02:51;5.70;99.90
68385;DHT22;55336;43.062;25.626;2023-04-06T06:05:17;5.60;99.90
68385;DHT22;55336;43.062;25.626;2023-04-06T06:07:43;5.70;99.90
68385;DHT22;55336;43.062;25.626;2023-04-06T06:10:09;5.50;99.90
68385;DHT22;55336;43.062;25.626;2023-04-06T06:12:35;5.40;99.90
68385;DHT22;55336;43.062;25.626;2023-04-06T06:15:01;5.50;99.90
68385;DHT22;55336;43.062;25.626;2023-04-06T06:17:27;5.60;99.90
68385;DHT22;55336;43.062;25.626;2023-04-06T06:19:54;5.70;99.90
68385;DHT22;55336;43.062;25.626;2023-04-06T06:22:19;5.60;99.90
68385;DHT22;55336;43.062;25.626;2023-04-06T06:24:45;5.60;99.90
68385;DHT22;55336;43.062;25.626;2023-04-06T06:27:11;5.60;99.90
68385;DHT22;55336;43.062;25.626;2023-04-06T06:29:37;5.70;99.90
68385;DHT22;55336;43.062;25.626;2023-04-06T06:32:03;5.70;99.90
68385;DHT22;55336;43.062;25.626;2023-04-06T06:34:29;5.70;99.90
68385;DHT22;55336;43.062;25.626;2023-04-06T06:36:55;5.80;99.90
68385;DHT22;55336;43.062;25.626;2023-04-06T06:39:21;5.60;99.90
68385;DHT22;55336;43.062;25.626;2023-04-06T06:41:47;5.80;99.90
68385;DHT22;55336;43.062;25.626;2023-04-06T06:44:12;5.80;99.90
68385;DHT22;55336;43.062;25.626;2023-04-06T06:46:38;5.80;99.90
68385;DHT22;55336;43.062;25.626;2023-04-06T06:49:04;5.80;99.90
68385;DHT22;55336;43.062;25.626;2023-04-06T06:51:30;5.90;99.90
68385;DHT22;55336;43.062;25.626;2023-04-06T06:53:56;6.00;99.90
68385;DHT22;55336;43.062;25.626;2023-04-06T06:56:21;6.00;99.90
68385;DHT22;55336;43.062;25.626;2023-04-06T06:58:48;6.10;99.90
68385;DHT22;55336;43.062;25.626;2023-04-06T07:01:14;6.20;99.90
68385;DHT22;55336;43.062;25.626;2023-04-06T07:03:40;6.30;99.90
68385;DHT22;55336;43.062;25.626;2023-04-06T07:06:06;6.40;99.90
68385;DHT22;55336;43.062;25.626;2023-04-06T07:08:32;6.40;99.90
68385;DHT22;55336;43.062;25.626;2023-04-06T07:10:57;6.30;99.90
68385;DHT22;55336;43.062;25.626;2023-04-06T07:13:23;6.30;99.90
68385;DHT22;55336;43.062;25.626;2023-04-06T07:15:50;6.10;99.90
68385;DHT22;55336;43.062;25.626;2023-04-06T07:18:17;6.20;99.90
68385;DHT22;55336;43.062;25.626;2023-04-06T07:20:43;6.20;99.90
68385;DHT22;55336;43.062;25.626;2023-04-06T07:23:08;6.20;99.90
68385;DHT22;55336;43.062;25.626;2023-04-06T07:25:34;6.40;99.90
68385;DHT22;55336;43.062;25.626;2023-04-06T07:28:01;6.30;99.90
68385;DHT22;55336;43.062;25.626;2023-04-06T07:30:27;6.50;99.90
68385;DHT22;55336;43.062;25.626;2023-04-06T07:32:54;6.50;99.90
68385;DHT22;55336;43.062;25.626;2023-04-06T07:35:25;6.70;99.90
68385;DHT22;55336;43.062;25.626;2023-04-06T07:37:55;7.00;99.90
68385;DHT22;55336;43.062;25.626;2023-04-06T07:40:21;7.10;99.90
68385;DHT22;55336;43.062;25.626;2023-04-06T07:42:47;6.90;99.90
68385;DHT22;55336;43.062;25.626;2023-04-06T07:45:13;7.00;99.90
68385;DHT22;55336;43.062;25.626;2023-04-06T07:47:39;6.80;99.90
68385;DHT22;55336;43.062;25.626;2023-04-06T07:50:05;7.20;99.90
68385;DHT22;55336;43.062;25.626;2023-04-06T07:52:31;7.30;99.90
68385;DHT22;55336;43.062;25.626;2023-04-06T07:54:58;7.20;99.90
68385;DHT22;55336;43.062;25.626;2023-04-06T07:57:24;7.60;99.90
68385;DHT22;55336;43.062;25.626;2023-04-06T07:59:50;7.70;99.90
68385;DHT22;55336;43.062;25.626;2023-04-06T08:02:16;7.80;99.90
68385;DHT22;55336;43.062;25.626;2023-04-06T08:04:42;7.90;99.90
68385;DHT22;55336;43.062;25.626;2023-04-06T08:07:08;7.90;99.90
68385;DHT22;55336;43.062;25.626;2023-04-06T08:09:34;7.90;99.20
68385;DHT22;55336;43.062;25.626;2023-04-06T08:12:00;7.90;99.40
68385;DHT22;55336;43.062;25.626;2023-04-06T08:14:26;7.70;97.00
68385;DHT22;55336;43.062;25.626;2023-04-06T08:16:51;7.60;99.90
68385;DHT22;55336;43.062;25.626;2023-04-06T08:19:17;8.00;98.40
68385;DHT22;55336;43.062;25.626;2023-04-06T08:21:45;7.90;96.50
68385;DHT22;55336;43.062;25.626;2023-04-06T08:24:12;7.90;95.50
68385;DHT22;55336;43.062;25.626;2023-04-06T08:26:38;7.90;94.30
68385;DHT22;55336;43.062;25.626;2023-04-06T08:29:03;7.90;96.70
68385;DHT22;55336;43.062;25.626;2023-04-06T08:31:30;8.20;95.60
68385;DHT22;55336;43.062;25.626;2023-04-06T08:33:56;8.20;90.30
68385;DHT22;55336;43.062;25.626;2023-04-06T08:36:21;7.90;91.40
68385;DHT22;55336;43.062;25.626;2023-04-06T08:38:48;7.90;90.00
68385;DHT22;55336;43.062;25.626;2023-04-06T08:41:15;8.00;99.90
68385;DHT22;55336;43.062;25.626;2023-04-06T08:43:47;8.10;92.70
68385;DHT22;55336;43.062;25.626;2023-04-06T08:46:14;8.10;94.20
68385;DHT22;55336;43.062;25.626;2023-04-06T08:48:41;8.60;96.80
68385;DHT22;55336;43.062;25.626;2023-04-06T08:51:12;8.60;95.60
68385;DHT22;55336;43.062;25.626;2023-04-06T08:53:38;8.50;89.60
68385;DHT22;55336;43.062;25.626;2023-04-06T08:56:05;8.60;86.70
68385;DHT22;55336;43.062;25.626;2023-04-06T08:58:37;8.50;90.60
68385;DHT22;55336;43.062;25.626;2023-04-06T09:01:07;8.40;86.30
68385;DHT22;55336;43.062;25.626;2023-04-06T09:03:38;8.50;85.00
68385;DHT22;55336;43.062;25.626;2023-04-06T09:06:05;8.50;86.60
68385;DHT22;55336;43.062;25.626;2023-04-06T09:08:38;8.40;87.60
68385;DHT22;55336;43.062;25.626;2023-04-06T09:11:04;8.60;86.10
68385;DHT22;55336;43.062;25.626;2023-04-06T09:13:30;8.70;87.30
68385;DHT22;55336;43.062;25.626;2023-04-06T09:16:01;8.70;84.80
68385;DHT22;55336;43.062;25.626;2023-04-06T09:18:31;8.60;83.90
68385;DHT22;55336;43.062;25.626;2023-04-06T09:21:02;8.70;84.00
68385;DHT22;55336;43.062;25.626;2023-04-06T09:23:28;8.70;82.70
68385;DHT22;55336;43.062;25.626;2023-04-06T09:26:23;9.00;85.70
68385;DHT22;55336;43.062;25.626;2023-04-06T09:28:50;9.10;84.60
68385;DHT22;55336;43.062;25.626;2023-04-06T09:31:24;9.30;86.30
68385;DHT22;55336;43.062;25.626;2023-04-06T09:33:51;9.50;85.40
68385;DHT22;55336;43.062;25.626;2023-04-06T09:36:18;10.00;78.30
68385;DHT22;55336;43.062;25.626;2023-04-06T09:38:58;9.80;75.00
68385;DHT22;55336;43.062;25.626;2023-04-06T09:41:29;10.00;76.00
68385;DHT22;55336;43.062;25.626;2023-04-06T09:44:09;10.00;77.30
68385;DHT22;55336;43.062;25.626;2023-04-06T09:46:44;10.70;73.20
68385;DHT22;55336;43.062;25.626;2023-04-06T09:49:11;10.90;71.50
68385;DHT22;55336;43.062;25.626;2023-04-06T09:52:00;10.90;71.80
68385;DHT22;55336;43.062;25.626;2023-04-06T09:54:31;11.10;72.60
68385;DHT22;55336;43.062;25.626;2023-04-06T10:05:07;11.40;68.10
68385;DHT22;55336;43.062;25.626;2023-04-06T10:07:35;11.70;65.10
68385;DHT22;55336;43.062;25.626;2023-04-06T10:10:03;11.00;66.60
68385;DHT22;55336;43.062;25.626;2023-04-06T10:12:29;10.80;68.00
68385;DHT22;55336;43.062;25.626;2023-04-06T10:14:56;11.30;69.20
68385;DHT22;55336;43.062;25.626;2023-04-06T10:17:22;11.10;67.10
68385;DHT22;55336;43.062;25.626;2023-04-06T10:19:59;11.50;63.80
68385;DHT22;55336;43.062;25.626;2023-04-06T10:22:43;11.70;62.40
68385;DHT22;55336;43.062;25.626;2023-04-06T10:25:09;11.60;64.30
68385;DHT22;55336;43.062;25.626;2023-04-06T10:27:35;10.90;63.80
68385;DHT22;55336;43.062;25.626;2023-04-06T10:30:05;11.20;67.30
68385;DHT22;55336;43.062;25.626;2023-04-06T10:32:37;11.70;63.00
68385;DHT22;55336;43.062;25.626;2023-04-06T10:35:10;11.60;61.90
68385;DHT22;55336;43.062;25.626;2023-04-06T10:37:54;11.90;64.90
68385;DHT22;55336;43.062;25.626;2023-04-06T10:40:26;11.80;61.70
68385;DHT22;55336;43.062;25.626;2023-04-06T10:43:06;12.00;64.50
68385;DHT22;55336;43.062;25.626;2023-04-06T10:45:32;12.10;63.20
68385;DHT22;55336;43.062;25.626;2023-04-06T10:47:59;12.40;59.50
68385;DHT22;55336;43.062;25.626;2023-04-06T10:50:24;12.60;60.20
68385;DHT22;55336;43.062;25.626;2023-04-06T10:53:00;12.40;63.20
68385;DHT22;55336;43.062;25.626;2023-04-06T10:55:28;12.80;61.50
68385;DHT22;55336;43.062;25.626;2023-04-06T10:57:54;12.80;57.60
68385;DHT22;55336;43.062;25.626;2023-04-06T11:00:20;12.70;58.30
68385;DHT22;55336;43.062;25.626;2023-04-06T11:02:46;13.00;61.90
68385;DHT22;55336;43.062;25.626;2023-04-06T11:05:12;12.80;64.20
68385;DHT22;55336;43.062;25.626;2023-04-06T11:07:41;12.90;63.50
68385;DHT22;55336;43.062;25.626;2023-04-06T11:10:07;13.00;58.30
68385;DHT22;55336;43.062;25.626;2023-04-06T11:12:33;12.30;59.90
68385;DHT22;55336;43.062;25.626;2023-04-06T11:15:00;12.50;63.70
68385;DHT22;55336;43.062;25.626;2023-04-06T11:17:31;12.50;66.00
68385;DHT22;55336;43.062;25.626;2023-04-06T11:19:57;12.70;58.00
68385;DHT22;55336;43.062;25.626;2023-04-06T11:22:24;12.70;57.00
68385;DHT22;55336;43.062;25.626;2023-04-06T11:24:50;12.50;60.60
68385;DHT22;55336;43.062;25.626;2023-04-06T11:27:17;12.40;57.50
68385;DHT22;55336;43.062;25.626;2023-04-06T11:29:44;12.20;57.70
68385;DHT22;55336;43.062;25.626;2023-04-06T11:32:11;12.20;61.10
68385;DHT22;55336;43.062;25.626;2023-04-06T11:34:46;12.60;59.90
68385;DHT22;55336;43.062;25.626;2023-04-06T11:37:13;12.80;56.70
68385;DHT22;55336;43.062;25.626;2023-04-06T11:39:54;13.00;57.70
68385;DHT22;55336;43.062;25.626;2023-04-06T11:42:27;12.70;56.10
68385;DHT22;55336;43.062;25.626;2023-04-06T11:44:58;12.60;59.30
68385;DHT22;55336;43.062;25.626;2023-04-06T11:47:33;12.30;57.40
68385;DHT22;55336;43.062;25.626;2023-04-06T11:50:12;12.60;57.00
68385;DHT22;55336;43.062;25.626;2023-04-06T11:52:40;13.20;58.00
68385;DHT22;55336;43.062;25.626;2023-04-06T11:55:17;14.00;56.40
68385;DHT22;55336;43.062;25.626;2023-04-06T11:57:43;14.00;55.10
68385;DHT22;55336;43.062;25.626;2023-04-06T12:00:10;13.20;55.20
68385;DHT22;55336;43.062;25.626;2023-04-06T12:02:37;13.70;54.70
68385;DHT22;55336;43.062;25.626;2023-04-06T12:05:04;13.50;55.20
68385;DHT22;55336;43.062;25.626;2023-04-06T12:07:31;13.50;54.30
68385;DHT22;55336;43.062;25.626;2023-04-06T12:09:58;13.70;54.20
68385;DHT22;55336;43.062;25.626;2023-04-06T12:12:24;13.20;53.60
68385;DHT22;55336;43.062;25.626;2023-04-06T12:14:51;13.10;56.10
68385;DHT22;55336;43.062;25.626;2023-04-06T12:17:17;13.10;55.90
68385;DHT22;55336;43.062;25.626;2023-04-06T12:19:43;13.20;59.50
68385;DHT22;55336;43.062;25.626;2023-04-06T12:22:09;12.30;58.90
68385;DHT22;55336;43.062;25.626;2023-04-06T12:24:35;11.70;60.20
68385;DHT22;55336;43.062;25.626;2023-04-06T12:27:01;11.50;58.50
68385;DHT22;55336;43.062;25.626;2023-04-06T12:29:27;12.40;58.30
68385;DHT22;55336;43.062;25.626;2023-04-06T12:31:52;12.60;56.40
68385;DHT22;55336;43.062;25.626;2023-04-06T12:34:18;12.20;57.90
68385;DHT22;55336;43.062;25.626;2023-04-06T12:36:44;12.70;56.40
68385;DHT22;55336;43.062;25.626;2023-04-06T12:39:10;13.20;55.60
68385;DHT22;55336;43.062;25.626;2023-04-06T12:41:36;13.00;56.40
68385;DHT22;55336;43.062;25.626;2023-04-06T12:44:02;12.30;58.10
68385;DHT22;55336;43.062;25.626;2023-04-06T12:46:29;12.80;57.90
68385;DHT22;55336;43.062;25.626;2023-04-06T12:48:58;12.70;60.50
68385;DHT22;55336;43.062;25.626;2023-04-06T12:51:27;12.40;58.40
68385;DHT22;55336;43.062;25.626;2023-04-06T12:53:53;12.70;56.90
68385;DHT22;55336;43.062;25.626;2023-04-06T12:56:19;12.60;59.20
68385;DHT22;55336;43.062;25.626;2023-04-06T12:58:46;11.90;59.30
68385;DHT22;55336;43.062;25.626;2023-04-06T13:01:13;12.50;59.50
68385;DHT22;55336;43.062;25.626;2023-04-06T13:03:41;13.00;56.50
68385;DHT22;55336;43.062;25.626;2023-04-06T13:06:08;13.10;56.80
68385;DHT22;55336;43.062;25.626;2023-04-06T13:08:34;13.30;58.30
68385;DHT22;55336;43.062;25.626;2023-04-06T13:11:03;13.30;58.10
68385;DHT22;55336;43.062;25.626;2023-04-06T13:13:29;13.80;58.10
68385;DHT22;55336;43.062;25.626;2023-04-06T13:16:00;14.60;54.60
68385;DHT22;55336;43.062;25.626;2023-04-06T13:18:30;15.00;54.60
68385;DHT22;55336;43.062;25.626;2023-04-06T13:20:58;16.00;51.80
68385;DHT22;55336;43.062;25.626;2023-04-06T13:23:31;15.90;51.00
68385;DHT22;55336;43.062;25.626;2023-04-06T13:26:05;15.30;50.30
68385;DHT22;55336;43.062;25.626;2023-04-06T13:28:32;14.20;50.50
68385;DHT22;55336;43.062;25.626;2023-04-06T13:30:59;14.20;51.00
68385;DHT22;55336;43.062;25.626;2023-04-06T13:33:26;14.70;50.50
68385;DHT22;55336;43.062;25.626;2023-04-06T13:35:52;14.60;51.00
68385;DHT22;55336;43.062;25.626;2023-04-06T13:38:18;14.70;51.30
68385;DHT22;55336;43.062;25.626;2023-04-06T13:40:44;14.40;51.70
68385;DHT22;55336;43.062;25.626;2023-04-06T13:43:10;14.20;50.90
68385;DHT22;55336;43.062;25.626;2023-04-06T13:45:37;14.10;52.20
68385;DHT22;55336;43.062;25.626;2023-04-06T13:48:04;14.00;50.70
68385;DHT22;55336;43.062;25.626;2023-04-06T13:50:31;13.70;50.20
68385;DHT22;55336;43.062;25.626;2023-04-06T13:52:56;12.60;51.80
68385;DHT22;55336;43.062;25.626;2023-04-06T13:55:22;12.80;52.00
68385;DHT22;55336;43.062;25.626;2023-04-06T13:57:51;12.90;53.00
68385;DHT22;55336;43.062;25.626;2023-04-06T14:00:17;12.90;53.40
68385;DHT22;55336;43.062;25.626;2023-04-06T14:02:44;13.00;51.60
68385;DHT22;55336;43.062;25.626;2023-04-06T14:05:10;12.80;53.30
68385;DHT22;55336;43.062;25.626;2023-04-06T14:07:37;12.50;53.40
68385;DHT22;55336;43.062;25.626;2023-04-06T14:10:03;12.30;53.20
68385;DHT22;55336;43.062;25.626;2023-04-06T14:12:29;12.50;54.80
68385;DHT22;55336;43.062;25.626;2023-04-06T14:14:57;12.70;54.50
68385;DHT22;55336;43.062;25.626;2023-04-06T14:17:22;12.60;52.00
68385;DHT22;55336;43.062;25.626;2023-04-06T14:19:48;12.30;55.70
68385;DHT22;55336;43.062;25.626;2023-04-06T14:22:14;12.20;53.20
68385;DHT22;55336;43.062;25.626;2023-04-06T14:24:40;12.30;55.00
68385;DHT22;55336;43.062;25.626;2023-04-06T14:27:06;12.30;54.10
68385;DHT22;55336;43.062;25.626;2023-04-06T14:29:32;12.10;53.20
68385;DHT22;55336;43.062;25.626;2023-04-06T14:31:57;12.30;53.50
68385;DHT22;55336;43.062;25.626;2023-04-06T14:34:26;12.20;54.00
68385;DHT22;55336;43.062;25.626;2023-04-06T14:36:52;12.20;54.80
68385;DHT22;55336;43.062;25.626;2023-04-06T14:39:18;11.80;54.50
68385;DHT22;55336;43.062;25.626;2023-04-06T14:41:44;11.80;54.60
68385;DHT22;55336;43.062;25.626;2023-04-06T14:44:10;11.90;54.40
68385;DHT22;55336;43.062;25.626;2023-04-06T14:46:37;11.50;54.80
68385;DHT22;55336;43.062;25.626;2023-04-06T14:49:03;11.80;55.00
68385;DHT22;55336;43.062;25.626;2023-04-06T14:51:30;11.60;55.10
68385;DHT22;55336;43.062;25.626;2023-04-06T14:53:56;11.40;53.00
68385;DHT22;55336;43.062;25.626;2023-04-06T14:56:23;11.30;57.10
68385;DHT22;55336;43.062;25.626;2023-04-06T14:58:52;11.10;56.60
68385;DHT22;55336;43.062;25.626;2023-04-06T15:01:18;11.30;54.60
68385;DHT22;55336;43.062;25.626;2023-04-06T15:03:46;11.30;56.00
68385;DHT22;55336;43.062;25.626;2023-04-06T15:06:13;11.40;56.40
68385;DHT22;55336;43.062;25.626;2023-04-06T15:08:43;11.40;56.70
68385;DHT22;55336;43.062;25.626;2023-04-06T15:11:10;11.30;56.10
68385;DHT22;55336;43.062;25.626;2023-04-06T15:13:36;11.20;56.20
68385;DHT22;55336;43.062;25.626;2023-04-06T15:16:02;11.40;56.40
68385;DHT22;55336;43.062;25.626;2023-04-06T15:18:28;11.40;55.50
68385;DHT22;55336;43.062;25.626;2023-04-06T15:20:54;11.30;55.30
68385;DHT22;55336;43.062;25.626;2023-04-06T15:23:20;11.10;56.60
68385;DHT22;55336;43.062;25.626;2023-04-06T15:25:46;10.90;57.90
68385;DHT22;55336;43.062;25.626;2023-04-06T15:28:12;10.80;57.30
68385;DHT22;55336;43.062;25.626;2023-04-06T15:30:38;10.70;58.50
68385;DHT22;55336;43.062;25.626;2023-04-06T15:33:04;10.50;58.20